Aviation Digital Data Service (ADDS)

Output produced by METARs form (2106 UTC 24 March 2019)
found at http://www.aviationweather.gov/metar/data/
 
KHBG 241720Z 2418/2518 18006KT P6SM FEW040 SCT100 
     FM250100 18003KT P6SM BKN050 
     FM251100 00000KT 1SM BR OVC003 
     FM251330 24006KT P6SM OVC012
       
KHDN 241740Z 2418/2518 10008KT P6SM VCSH BKN035 OVC050 
     FM241900 27010KT P6SM VCTS BKN035CB OVC050 
     TEMPO 2420/2424 4SM -TSRA BKN025CB OVC040 
     FM250000 27008KT P6SM VCSH BKN025 OVC040 
     FM250600 24005KT P6SM SCT025 BKN040 
     FM251200 25005KT P6SM FEW040 SCT090
       
KHIE 241720Z 2418/2518 24007KT P6SM FEW250 
     FM242200 VRB03KT P6SM SCT030 BKN060 
     FM250600 31005KT P6SM BKN040
       
KHIO 241730Z 2418/2518 00000KT 6SM BR BKN004 
     FM241900 VRB03KT P6SM SCT035 
     FM250000 35003KT P6SM BKN250
       
KHKS 241720Z 2418/2518 18007KT P6SM BKN080 
     FM250800 19007KT P6SM SCT020 OVC030 
     FM251100 22008KT 5SM -RA BR OVC007 
     FM251400 24010KT P6SM BKN012 OVC020
       
KHKY 241734Z 2418/2518 21011G18KT P6SM SCT200 
     FM250000 21005KT P6SM BKN200 
     FM251200 18003KT P6SM BKN050 
     PROB30 2513/2517 4SM -RA BR OVC025 
     FM251700 23005KT P6SM -SHRA BKN080
       
KHLG 241720Z 2418/2518 22008KT P6SM SCT120 BKN200 
     FM250700 30003KT P6SM OVC050 
     FM250900 33004KT P6SM OVC025
       
KHLN 241743Z 2418/2518 VRB05KT 6SM BR OVC015 
     FM250200 VRB03KT P6SM VCSH SCT010 OVC020 
     PROB30 2503/2508 4SM -SHSN BKN009 
     FM251200 VRB05KT P6SM SCT025 BKN040 
     FM251700 VRB03KT P6SM SCT120
       
KHND 241720Z 2418/2518 02006KT P6SM FEW250 
     FM250300 18006KT P6SM SCT250 
     FM251500 VRB05KT P6SM SCT250
       
KHOB 242058Z 2421/2518 24007KT P6SM SCT250 
     TEMPO 2421/2424 24010G18KT 
     FM250100 29008KT P6SM SCT250
       
KHON 242046Z 2421/2518 36012KT P6SM BKN007 
     FM250100 02007KT P6SM OVC008 
     FM251300 08006KT P6SM BKN012
       
TAF KHOP 241600Z 2416/2522 VRB06KT 9000 -SHRA SCT030 BKN050 QNH3002INS 
     BECMG 2420/2421 21012G24KT 9999 NSW BKN020 OVC040 QNH3001INS 
     BECMG 2423/2424 VRB06KT 9999 OVC030 QNH2996INS 
     BECMG 2504/2505 22009KT 9000 -SHRA VCTS OVC030CB QNH2990INS 
     TEMPO 2506/2510 VRB15G25KT 8000 -TSRA OVC020CB 
     BECMG 2520/2521 01012G20KT 8000 -SHRA OVC020 QNH2996INS TX15/2421Z
TN09/2416Z
       
KHOT 241720Z 2418/2518 14005KT P6SM OVC015 
     TEMPO 2418/2422 FEW015 BKN050 
     FM250000 22007KT P6SM VCTS BKN050CB 
     PROB30 2503/2509 VRB20G40KT 2SM TSRA BR OVC010CB 
     FM250900 32006KT 4SM -RA BR BKN030 OVC050 
     FM251500 34008KT P6SM BKN100
       
KHOU 241730Z 2418/2518 18011KT P6SM SCT025 BKN040 
     FM250100 16007KT P6SM OVC020 
     FM250600 18005KT 6SM BR BKN007 OVC015 
     FM250700 19004KT 4SM BR OVC004 
     FM251500 24005KT 6SM BR OVC007 
     FM251700 27007KT P6SM OVC015
       
KHPN 241950Z 2420/2518 23011G18KT P6SM BKN150 
     FM242300 25006KT P6SM BKN120 
     FM250100 VRB03KT P6SM OVC090 
     FM251000 32010KT P6SM FEW035 BKN060 AMD NOT SKED
       
KHQM 242103Z 2421/2518 10007KT P6SM FEW030 BKN250 
     FM250100 03006KT P6SM SCT250 
     FM250400 04005KT 3SM BR SCT200 
     FM251000 05010KT 2SM BR BKN120
       
KHRL 241720Z 2418/2518 16015G25KT P6SM BKN025 
     FM250000 15008KT P6SM BKN050 
     FM251000 15006KT 3SM BR OVC007 
     FM251500 18010KT P6SM BKN015
       
KHRO 241825Z 2418/2518 24010G18KT P6SM BKN035 OVC050 
     FM242200 24012KT P6SM VCTS SCT025 BKN050CB 
     TEMPO 2422/2502 4SM -TSRA BR OVC025CB 
     FM250200 30008KT 4SM -RA BR BKN030 OVC050 
     FM251000 31006KT P6SM BKN050
       
TAF KHST 241600Z 2416/2522 09012KT 9999 SCT050 BKN250 QNH3016INS 
     BECMG 2423/2424 09009KT 9999 SCT030 QNH3011INS 
     BECMG 2517/2518 09009KT 9000 -SHRA BKN030 QNH3005INS TX27/2420Z TN20/2511Z
       
KHSV 241720Z 2418/2518 20010KT P6SM BKN070 OVC250 
     FM250000 17004KT P6SM OVC090 
     TEMPO 2509/2512 P6SM -RA OVC030 
     FM251200 20005KT P6SM -RA OVC020 
     FM251600 22007KT P6SM -SHRA OVC015
       
KHTS 241720Z 2418/2518 22004KT P6SM BKN150 
     FM242100 20005KT P6SM OVC060 
     FM251000 09003KT 6SM -SHRA OVC015 
     FM251400 05004KT 4SM -SHRA OVC007
       
KHUF 242013Z 2420/2518 16006KT 6SM -SHRA BR OVC015 
     FM250100 VRB04KT 6SM -SHRA BR VCTS OVC028CB 
     FM250800 03009KT 6SM SHRA BR OVC010 
     FM251300 03011G20KT P6SM OVC010
       
KHUM 241720Z 2418/2518 18008KT P6SM SCT030 
     FM250900 00000KT 4SM BR BKN045 
     FM251400 00000KT P6SM BKN070
       
KHUT 242039Z 2421/2518 33015KT P6SM BKN035 
     FM242300 35010KT P6SM SCT090 
     FM250700 36007KT P6SM BKN060 
     FM250900 36008KT P6SM BKN020
       
KHVR 241743Z 2418/2518 08015KT 3SM -RA BR OVC005 
     FM242300 07007KT 1SM -SN BR BKN007 OVC015 
     FM250600 VRB05KT 1/2SM FG BKN005 OVC010 
     FM251500 20009KT P6SM SCT020 BKN040
       
KHYA 241726Z 2418/2518 23014G24KT P6SM SKC 
     FM242300 23013G20KT P6SM BKN120 
     FM250200 23009KT P6SM OVC120 
     FM250800 25006KT P6SM OVC100 
     FM251500 36011KT P6SM BKN030 
     FM251700 01010KT P6SM BKN250
       
KHYR 242048Z 2421/2518 03013KT P6SM FEW030 
     FM250000 VRB03KT P6SM SCT040
       
KHYS 241804Z 2418/2518 34015G25KT P6SM OVC020 
     FM242100 32010G20KT P6SM BKN030 
     FM250000 02010KT P6SM OVC060 
     FM250600 36007KT P6SM OVC100 
     FM250900 36006KT P6SM OVC010 
     FM251500 04004KT P6SM OVC020
       
KHUL 241720Z 2418/2518 29012G20KT P6SM BKN250 
     FM242000 28010G18KT P6SM VCSH BKN100 
     FM250300 36006KT P6SM VCSH BKN070 
     FM250800 36005KT P6SM SCT110 
     FM251300 30008G20KT P6SM FEW250